sensor_id;sensor_type;location;lat;lon;timestamp;P1;durP1;ratioP1;P2;durP2;ratioP2
4766;SDS011;2397;53.576;9.746;2023-09-07T00:01:00;5.70;;;5.30;;
4766;SDS011;2397;53.576;9.746;2023-09-07T00:03:27;5.70;;;5.30;;
4766;SDS011;2397;53.576;9.746;2023-09-07T00:05:54;7.60;;;6.00;;
4766;SDS011;2397;53.576;9.746;2023-09-07T00:08:20;6.10;;;5.60;;
4766;SDS011;2397;53.576;9.746;2023-09-07T00:10:47;5.80;;;5.30;;
4766;SDS011;2397;53.576;9.746;2023-09-07T00:13:14;5.87;;;5.47;;
4766;SDS011;2397;53.576;9.746;2023-09-07T00:15:41;5.50;;;5.10;;
4766;SDS011;2397;53.576;9.746;2023-09-07T00:18:07;5.90;;;5.50;;
4766;SDS011;2397;53.576;9.746;2023-09-07T00:20:34;5.83;;;5.30;;
4766;SDS011;2397;53.576;9.746;2023-09-07T00:23:02;5.57;;;5.10;;
4766;SDS011;2397;53.576;9.746;2023-09-07T00:25:29;6.07;;;5.67;;
4766;SDS011;2397;53.576;9.746;2023-09-07T00:27:56;5.90;;;5.40;;
4766;SDS011;2397;53.576;9.746;2023-09-07T00:30:23;6.10;;;5.70;;
4766;SDS011;2397;53.576;9.746;2023-09-07T00:32:49;5.90;;;5.40;;
4766;SDS011;2397;53.576;9.746;2023-09-07T00:35:16;6.60;;;5.97;;
4766;SDS011;2397;53.576;9.746;2023-09-07T00:37:43;5.80;;;5.30;;
4766;SDS011;2397;53.576;9.746;2023-09-07T00:40:09;6.10;;;5.60;;
4766;SDS011;2397;53.576;9.746;2023-09-07T00:42:36;6.73;;;6.03;;
4766;SDS011;2397;53.576;9.746;2023-09-07T00:45:03;5.73;;;4.83;;
4766;SDS011;2397;53.576;9.746;2023-09-07T00:47:31;5.93;;;5.53;;
4766;SDS011;2397;53.576;9.746;2023-09-07T00:50:02;6.80;;;6.20;;
4766;SDS011;2397;53.576;9.746;2023-09-07T00:52:32;5.93;;;5.50;;
4766;SDS011;2397;53.576;9.746;2023-09-07T00:55:03;5.10;;;4.77;;
4766;SDS011;2397;53.576;9.746;2023-09-07T00:57:31;6.03;;;5.53;;
4766;SDS011;2397;53.576;9.746;2023-09-07T00:59:59;6.33;;;5.80;;
4766;SDS011;2397;53.576;9.746;2023-09-07T01:02:25;6.37;;;5.77;;
4766;SDS011;2397;53.576;9.746;2023-09-07T01:04:52;6.40;;;5.83;;
4766;SDS011;2397;53.576;9.746;2023-09-07T01:07:20;5.97;;;5.43;;
4766;SDS011;2397;53.576;9.746;2023-09-07T01:09:52;6.93;;;6.20;;
4766;SDS011;2397;53.576;9.746;2023-09-07T01:12:22;5.83;;;5.27;;
4766;SDS011;2397;53.576;9.746;2023-09-07T01:14:49;5.63;;;5.23;;
4766;SDS011;2397;53.576;9.746;2023-09-07T01:17:16;6.20;;;5.60;;
4766;SDS011;2397;53.576;9.746;2023-09-07T01:19:43;6.33;;;5.83;;
4766;SDS011;2397;53.576;9.746;2023-09-07T01:22:10;6.10;;;5.50;;
4766;SDS011;2397;53.576;9.746;2023-09-07T01:24:38;6.47;;;5.80;;
4766;SDS011;2397;53.576;9.746;2023-09-07T01:27:06;6.10;;;5.60;;
4766;SDS011;2397;53.576;9.746;2023-09-07T01:29:33;6.10;;;5.50;;
4766;SDS011;2397;53.576;9.746;2023-09-07T01:32:00;6.67;;;6.03;;
4766;SDS011;2397;53.576;9.746;2023-09-07T01:34:27;6.17;;;5.60;;
4766;SDS011;2397;53.576;9.746;2023-09-07T01:36:53;6.57;;;5.97;;
4766;SDS011;2397;53.576;9.746;2023-09-07T01:39:20;6.10;;;5.60;;
4766;SDS011;2397;53.576;9.746;2023-09-07T01:41:48;5.80;;;5.30;;
4766;SDS011;2397;53.576;9.746;2023-09-07T01:44:15;6.07;;;5.63;;
4766;SDS011;2397;53.576;9.746;2023-09-07T01:46:42;6.00;;;5.50;;
4766;SDS011;2397;53.576;9.746;2023-09-07T01:49:08;5.40;;;5.00;;
4766;SDS011;2397;53.576;9.746;2023-09-07T01:51:36;6.20;;;5.63;;
4766;SDS011;2397;53.576;9.746;2023-09-07T01:54:03;5.33;;;4.83;;
4766;SDS011;2397;53.576;9.746;2023-09-07T01:56:31;6.40;;;5.90;;
4766;SDS011;2397;53.576;9.746;2023-09-07T01:58:58;6.33;;;5.77;;
4766;SDS011;2397;53.576;9.746;2023-09-07T02:01:30;6.67;;;6.00;;
4766;SDS011;2397;53.576;9.746;2023-09-07T02:03:57;5.83;;;5.33;;
4766;SDS011;2397;53.576;9.746;2023-09-07T02:06:23;6.53;;;5.93;;
4766;SDS011;2397;53.576;9.746;2023-09-07T02:08:50;7.50;;;5.10;;
4766;SDS011;2397;53.576;9.746;2023-09-07T02:11:17;6.03;;;5.53;;
4766;SDS011;2397;53.576;9.746;2023-09-07T02:13:45;6.40;;;5.80;;
4766;SDS011;2397;53.576;9.746;2023-09-07T02:16:13;6.10;;;5.47;;
4766;SDS011;2397;53.576;9.746;2023-09-07T02:18:41;5.40;;;4.90;;
4766;SDS011;2397;53.576;9.746;2023-09-07T02:21:14;5.90;;;5.40;;
4766;SDS011;2397;53.576;9.746;2023-09-07T02:23:42;7.63;;;5.37;;
4766;SDS011;2397;53.576;9.746;2023-09-07T02:26:09;5.60;;;5.10;;
4766;SDS011;2397;53.576;9.746;2023-09-07T02:28:35;6.17;;;5.50;;
4766;SDS011;2397;53.576;9.746;2023-09-07T02:31:03;6.07;;;5.57;;
4766;SDS011;2397;53.576;9.746;2023-09-07T02:33:31;5.57;;;5.17;;
4766;SDS011;2397;53.576;9.746;2023-09-07T02:35:58;5.50;;;5.00;;
4766;SDS011;2397;53.576;9.746;2023-09-07T02:38:25;5.50;;;5.00;;
4766;SDS011;2397;53.576;9.746;2023-09-07T02:40:54;5.47;;;4.97;;
4766;SDS011;2397;53.576;9.746;2023-09-07T02:43:21;5.13;;;4.67;;
4766;SDS011;2397;53.576;9.746;2023-09-07T02:45:49;5.60;;;5.20;;
4766;SDS011;2397;53.576;9.746;2023-09-07T02:48:20;5.57;;;5.10;;
4766;SDS011;2397;53.576;9.746;2023-09-07T02:50:47;5.43;;;5.03;;
4766;SDS011;2397;53.576;9.746;2023-09-07T02:53:17;7.20;;;5.80;;
4766;SDS011;2397;53.576;9.746;2023-09-07T02:55:44;5.77;;;4.97;;
4766;SDS011;2397;53.576;9.746;2023-09-07T02:58:11;5.67;;;5.07;;
4766;SDS011;2397;53.576;9.746;2023-09-07T03:00:42;6.20;;;5.70;;
4766;SDS011;2397;53.576;9.746;2023-09-07T03:03:11;5.87;;;5.37;;
4766;SDS011;2397;53.576;9.746;2023-09-07T03:05:40;5.93;;;5.37;;
4766;SDS011;2397;53.576;9.746;2023-09-07T03:08:07;6.00;;;5.30;;
4766;SDS011;2397;53.576;9.746;2023-09-07T03:10:37;5.60;;;5.10;;
4766;SDS011;2397;53.576;9.746;2023-09-07T03:13:07;6.50;;;5.90;;
4766;SDS011;2397;53.576;9.746;2023-09-07T03:15:34;6.63;;;5.90;;
4766;SDS011;2397;53.576;9.746;2023-09-07T03:18:04;5.97;;;5.47;;
4766;SDS011;2397;53.576;9.746;2023-09-07T03:20:34;5.77;;;5.27;;
4766;SDS011;2397;53.576;9.746;2023-09-07T03:23:02;5.67;;;5.27;;
4766;SDS011;2397;53.576;9.746;2023-09-07T03:25:30;6.93;;;5.60;;
4766;SDS011;2397;53.576;9.746;2023-09-07T03:27:56;6.60;;;6.00;;
4766;SDS011;2397;53.576;9.746;2023-09-07T03:30:23;6.07;;;5.57;;
4766;SDS011;2397;53.576;9.746;2023-09-07T03:32:52;5.60;;;5.20;;
4766;SDS011;2397;53.576;9.746;2023-09-07T03:35:19;6.30;;;5.80;;
4766;SDS011;2397;53.576;9.746;2023-09-07T03:37:45;8.17;;;5.87;;
4766;SDS011;2397;53.576;9.746;2023-09-07T03:40:12;7.63;;;6.30;;
4766;SDS011;2397;53.576;9.746;2023-09-07T03:42:39;7.97;;;5.70;;
4766;SDS011;2397;53.576;9.746;2023-09-07T03:45:07;6.77;;;6.10;;
4766;SDS011;2397;53.576;9.746;2023-09-07T03:47:34;6.13;;;5.70;;
4766;SDS011;2397;53.576;9.746;2023-09-07T03:50:01;7.30;;;6.70;;
4766;SDS011;2397;53.576;9.746;2023-09-07T03:52:30;6.50;;;5.80;;
4766;SDS011;2397;53.576;9.746;2023-09-07T03:54:59;6.20;;;5.33;;
4766;SDS011;2397;53.576;9.746;2023-09-07T03:57:27;7.93;;;5.80;;
4766;SDS011;2397;53.576;9.746;2023-09-07T03:59:54;6.80;;;6.10;;
4766;SDS011;2397;53.576;9.746;2023-09-07T04:02:22;5.60;;;5.10;;
4766;SDS011;2397;53.576;9.746;2023-09-07T04:04:50;6.30;;;5.80;;
4766;SDS011;2397;53.576;9.746;2023-09-07T04:07:18;6.00;;;5.50;;
4766;SDS011;2397;53.576;9.746;2023-09-07T04:09:45;6.33;;;5.63;;
4766;SDS011;2397;53.576;9.746;2023-09-07T04:12:12;6.07;;;5.67;;
4766;SDS011;2397;53.576;9.746;2023-09-07T04:14:39;5.60;;;5.10;;
4766;SDS011;2397;53.576;9.746;2023-09-07T04:17:06;6.63;;;6.13;;
4766;SDS011;2397;53.576;9.746;2023-09-07T04:19:32;6.03;;;5.50;;
4766;SDS011;2397;53.576;9.746;2023-09-07T04:21:59;5.77;;;5.37;;
4766;SDS011;2397;53.576;9.746;2023-09-07T04:24:27;5.80;;;5.30;;
4766;SDS011;2397;53.576;9.746;2023-09-07T04:27:00;5.60;;;5.20;;
4766;SDS011;2397;53.576;9.746;2023-09-07T04:29:28;6.00;;;5.50;;
4766;SDS011;2397;53.576;9.746;2023-09-07T04:31:55;5.90;;;5.43;;
4766;SDS011;2397;53.576;9.746;2023-09-07T04:34:22;5.50;;;5.10;;
4766;SDS011;2397;53.576;9.746;2023-09-07T04:36:50;6.20;;;5.63;;
4766;SDS011;2397;53.576;9.746;2023-09-07T04:39:17;5.87;;;5.47;;
4766;SDS011;2397;53.576;9.746;2023-09-07T04:41:44;6.40;;;5.50;;
4766;SDS011;2397;53.576;9.746;2023-09-07T04:44:11;5.83;;;5.33;;
4766;SDS011;2397;53.576;9.746;2023-09-07T04:46:38;7.93;;;6.00;;
4766;SDS011;2397;53.576;9.746;2023-09-07T04:49:06;5.83;;;5.20;;
4766;SDS011;2397;53.576;9.746;2023-09-07T04:51:33;5.80;;;5.30;;
4766;SDS011;2397;53.576;9.746;2023-09-07T04:53:59;6.13;;;5.63;;
4766;SDS011;2397;53.576;9.746;2023-09-07T04:56:26;6.27;;;5.53;;
4766;SDS011;2397;53.576;9.746;2023-09-07T04:58:54;6.27;;;5.67;;
4766;SDS011;2397;53.576;9.746;2023-09-07T05:01:21;6.00;;;5.40;;
4766;SDS011;2397;53.576;9.746;2023-09-07T05:03:50;6.40;;;5.80;;
4766;SDS011;2397;53.576;9.746;2023-09-07T05:06:18;6.33;;;5.83;;
4766;SDS011;2397;53.576;9.746;2023-09-07T05:08:45;6.23;;;5.73;;
4766;SDS011;2397;53.576;9.746;2023-09-07T05:11:12;6.10;;;5.60;;
4766;SDS011;2397;53.576;9.746;2023-09-07T05:13:38;6.70;;;6.10;;
4766;SDS011;2397;53.576;9.746;2023-09-07T05:16:05;6.10;;;5.47;;
4766;SDS011;2397;53.576;9.746;2023-09-07T05:18:34;6.70;;;6.20;;
4766;SDS011;2397;53.576;9.746;2023-09-07T05:21:10;6.53;;;5.93;;
4766;SDS011;2397;53.576;9.746;2023-09-07T05:23:38;7.23;;;6.60;;
4766;SDS011;2397;53.576;9.746;2023-09-07T05:26:04;6.77;;;6.17;;
4766;SDS011;2397;53.576;9.746;2023-09-07T05:28:31;6.27;;;5.77;;
4766;SDS011;2397;53.576;9.746;2023-09-07T05:30:58;8.00;;;7.20;;
4766;SDS011;2397;53.576;9.746;2023-09-07T05:33:25;6.87;;;6.27;;
4766;SDS011;2397;53.576;9.746;2023-09-07T05:35:52;6.97;;;6.40;;
4766;SDS011;2397;53.576;9.746;2023-09-07T05:38:18;6.83;;;6.23;;
4766;SDS011;2397;53.576;9.746;2023-09-07T05:40:46;6.93;;;6.33;;
4766;SDS011;2397;53.576;9.746;2023-09-07T05:43:16;7.13;;;6.60;;
4766;SDS011;2397;53.576;9.746;2023-09-07T05:45:43;7.23;;;6.63;;
4766;SDS011;2397;53.576;9.746;2023-09-07T05:48:10;7.17;;;6.47;;
4766;SDS011;2397;53.576;9.746;2023-09-07T05:50:37;6.70;;;6.10;;
4766;SDS011;2397;53.576;9.746;2023-09-07T05:53:05;7.47;;;6.87;;
4766;SDS011;2397;53.576;9.746;2023-09-07T05:55:32;6.63;;;6.07;;
4766;SDS011;2397;53.576;9.746;2023-09-07T05:58:03;6.90;;;6.40;;
4766;SDS011;2397;53.576;9.746;2023-09-07T06:00:32;6.97;;;6.47;;
4766;SDS011;2397;53.576;9.746;2023-09-07T06:02:58;8.10;;;6.37;;
4766;SDS011;2397;53.576;9.746;2023-09-07T06:05:25;7.80;;;7.00;;
4766;SDS011;2397;53.576;9.746;2023-09-07T06:07:52;12.27;;;7.10;;
4766;SDS011;2397;53.576;9.746;2023-09-07T06:10:19;7.80;;;7.10;;
4766;SDS011;2397;53.576;9.746;2023-09-07T06:12:46;6.97;;;6.37;;
4766;SDS011;2397;53.576;9.746;2023-09-07T06:15:14;9.67;;;7.23;;
4766;SDS011;2397;53.576;9.746;2023-09-07T06:17:41;7.13;;;6.43;;
4766;SDS011;2397;53.576;9.746;2023-09-07T06:20:08;7.80;;;6.10;;
4766;SDS011;2397;53.576;9.746;2023-09-07T06:22:35;7.20;;;6.47;;
4766;SDS011;2397;53.576;9.746;2023-09-07T06:25:02;12.20;;;7.37;;
4766;SDS011;2397;53.576;9.746;2023-09-07T06:27:29;8.00;;;7.30;;
4766;SDS011;2397;53.576;9.746;2023-09-07T06:29:56;7.13;;;6.50;;
4766;SDS011;2397;53.576;9.746;2023-09-07T06:32:22;8.37;;;7.57;;
4766;SDS011;2397;53.576;9.746;2023-09-07T06:34:50;7.83;;;7.23;;
4766;SDS011;2397;53.576;9.746;2023-09-07T06:37:17;10.13;;;7.70;;
4766;SDS011;2397;53.576;9.746;2023-09-07T06:39:44;8.10;;;7.40;;
4766;SDS011;2397;53.576;9.746;2023-09-07T06:42:11;6.53;;;6.00;;
4766;SDS011;2397;53.576;9.746;2023-09-07T06:44:49;11.13;;;6.30;;
4766;SDS011;2397;53.576;9.746;2023-09-07T06:47:16;7.60;;;6.50;;
4766;SDS011;2397;53.576;9.746;2023-09-07T06:49:43;8.37;;;7.57;;
4766;SDS011;2397;53.576;9.746;2023-09-07T06:52:10;7.50;;;6.80;;
4766;SDS011;2397;53.576;9.746;2023-09-07T06:54:38;8.73;;;6.77;;
4766;SDS011;2397;53.576;9.746;2023-09-07T06:57:08;7.70;;;7.00;;
4766;SDS011;2397;53.576;9.746;2023-09-07T06:59:35;8.10;;;6.90;;
4766;SDS011;2397;53.576;9.746;2023-09-07T07:02:03;8.07;;;7.10;;
4766;SDS011;2397;53.576;9.746;2023-09-07T07:04:32;9.90;;;6.73;;
4766;SDS011;2397;53.576;9.746;2023-09-07T07:06:59;6.63;;;5.60;;
4766;SDS011;2397;53.576;9.746;2023-09-07T07:09:27;7.33;;;6.53;;
4766;SDS011;2397;53.576;9.746;2023-09-07T07:11:58;7.70;;;6.90;;
4766;SDS011;2397;53.576;9.746;2023-09-07T07:14:27;7.87;;;6.60;;
4766;SDS011;2397;53.576;9.746;2023-09-07T07:16:54;7.50;;;6.80;;
4766;SDS011;2397;53.576;9.746;2023-09-07T07:19:22;7.30;;;6.63;;
4766;SDS011;2397;53.576;9.746;2023-09-07T07:21:49;6.60;;;6.10;;
4766;SDS011;2397;53.576;9.746;2023-09-07T07:24:15;7.03;;;5.93;;
4766;SDS011;2397;53.576;9.746;2023-09-07T07:26:44;6.93;;;6.03;;
4766;SDS011;2397;53.576;9.746;2023-09-07T07:29:10;6.57;;;5.90;;
4766;SDS011;2397;53.576;9.746;2023-09-07T07:31:38;6.07;;;5.47;;
4766;SDS011;2397;53.576;9.746;2023-09-07T07:34:05;6.10;;;5.53;;
4766;SDS011;2397;53.576;9.746;2023-09-07T07:36:31;6.83;;;6.23;;
4766;SDS011;2397;53.576;9.746;2023-09-07T07:39:01;6.57;;;6.07;;
4766;SDS011;2397;53.576;9.746;2023-09-07T07:41:29;6.30;;;5.70;;
4766;SDS011;2397;53.576;9.746;2023-09-07T07:43:56;9.10;;;6.00;;
4766;SDS011;2397;53.576;9.746;2023-09-07T07:46:23;10.80;;;6.13;;
4766;SDS011;2397;53.576;9.746;2023-09-07T07:48:50;6.63;;;5.93;;
4766;SDS011;2397;53.576;9.746;2023-09-07T07:51:16;6.70;;;6.03;;
4766;SDS011;2397;53.576;9.746;2023-09-07T07:53:45;6.37;;;5.77;;
4766;SDS011;2397;53.576;9.746;2023-09-07T07:56:16;8.67;;;5.90;;
4766;SDS011;2397;53.576;9.746;2023-09-07T07:58:45;14.03;;;6.00;;
4766;SDS011;2397;53.576;9.746;2023-09-07T08:01:16;6.27;;;5.67;;
4766;SDS011;2397;53.576;9.746;2023-09-07T08:03:45;12.03;;;6.10;;
4766;SDS011;2397;53.576;9.746;2023-09-07T08:06:12;7.07;;;5.90;;
4766;SDS011;2397;53.576;9.746;2023-09-07T08:08:40;5.83;;;5.30;;
4766;SDS011;2397;53.576;9.746;2023-09-07T08:11:07;6.67;;;5.90;;
4766;SDS011;2397;53.576;9.746;2023-09-07T08:13:36;7.17;;;6.37;;
4766;SDS011;2397;53.576;9.746;2023-09-07T08:16:04;7.27;;;5.50;;
4766;SDS011;2397;53.576;9.746;2023-09-07T08:18:34;8.40;;;5.93;;
4766;SDS011;2397;53.576;9.746;2023-09-07T08:21:02;7.03;;;5.97;;
4766;SDS011;2397;53.576;9.746;2023-09-07T08:23:29;7.50;;;5.90;;
4766;SDS011;2397;53.576;9.746;2023-09-07T08:25:56;6.07;;;5.57;;
4766;SDS011;2397;53.576;9.746;2023-09-07T08:28:24;7.20;;;6.40;;
4766;SDS011;2397;53.576;9.746;2023-09-07T08:30:52;6.73;;;6.13;;
4766;SDS011;2397;53.576;9.746;2023-09-07T08:33:22;9.43;;;6.90;;
4766;SDS011;2397;53.576;9.746;2023-09-07T08:35:52;13.30;;;7.50;;
4766;SDS011;2397;53.576;9.746;2023-09-07T08:38:21;7.20;;;6.40;;
4766;SDS011;2397;53.576;9.746;2023-09-07T08:40:52;6.67;;;6.17;;
4766;SDS011;2397;53.576;9.746;2023-09-07T08:43:20;10.07;;;6.43;;
4766;SDS011;2397;53.576;9.746;2023-09-07T08:45:53;7.40;;;6.03;;
4766;SDS011;2397;53.576;9.746;2023-09-07T08:48:27;7.20;;;6.50;;
4766;SDS011;2397;53.576;9.746;2023-09-07T08:50:56;9.93;;;5.80;;
4766;SDS011;2397;53.576;9.746;2023-09-07T08:53:22;6.23;;;5.70;;
4766;SDS011;2397;53.576;9.746;2023-09-07T08:55:49;11.00;;;6.67;;
4766;SDS011;2397;53.576;9.746;2023-09-07T08:58:16;10.40;;;5.70;;
4766;SDS011;2397;53.576;9.746;2023-09-07T09:00:43;8.47;;;6.00;;
4766;SDS011;2397;53.576;9.746;2023-09-07T09:03:11;7.50;;;5.77;;
4766;SDS011;2397;53.576;9.746;2023-09-07T09:05:40;8.87;;;5.87;;
4766;SDS011;2397;53.576;9.746;2023-09-07T09:08:07;7.57;;;5.97;;
4766;SDS011;2397;53.576;9.746;2023-09-07T09:10:40;6.40;;;5.73;;
4766;SDS011;2397;53.576;9.746;2023-09-07T09:13:07;7.80;;;5.33;;
4766;SDS011;2397;53.576;9.746;2023-09-07T09:15:34;6.07;;;5.53;;
4766;SDS011;2397;53.576;9.746;2023-09-07T09:18:08;6.13;;;5.47;;
4766;SDS011;2397;53.576;9.746;2023-09-07T09:20:39;6.07;;;5.47;;
4766;SDS011;2397;53.576;9.746;2023-09-07T09:23:06;7.07;;;5.50;;
4766;SDS011;2397;53.576;9.746;2023-09-07T09:25:33;9.50;;;5.70;;
4766;SDS011;2397;53.576;9.746;2023-09-07T09:28:00;5.83;;;5.33;;
4766;SDS011;2397;53.576;9.746;2023-09-07T09:30:27;7.47;;;5.57;;
4766;SDS011;2397;53.576;9.746;2023-09-07T09:32:54;15.50;;;6.10;;
4766;SDS011;2397;53.576;9.746;2023-09-07T09:35:20;7.73;;;5.57;;
4766;SDS011;2397;53.576;9.746;2023-09-07T09:37:49;5.47;;;5.07;;
4766;SDS011;2397;53.576;9.746;2023-09-07T09:40:16;9.50;;;6.17;;
4766;SDS011;2397;53.576;9.746;2023-09-07T09:42:45;7.53;;;5.60;;
4766;SDS011;2397;53.576;9.746;2023-09-07T09:45:12;8.63;;;5.97;;
4766;SDS011;2397;53.576;9.746;2023-09-07T09:47:40;6.50;;;5.40;;
4766;SDS011;2397;53.576;9.746;2023-09-07T09:50:08;6.47;;;5.47;;
4766;SDS011;2397;53.576;9.746;2023-09-07T09:52:37;6.53;;;5.63;;
4766;SDS011;2397;53.576;9.746;2023-09-07T09:55:05;8.80;;;5.57;;
4766;SDS011;2397;53.576;9.746;2023-09-07T09:57:39;6.73;;;5.67;;
4766;SDS011;2397;53.576;9.746;2023-09-07T10:00:07;9.07;;;5.87;;
4766;SDS011;2397;53.576;9.746;2023-09-07T10:02:53;6.73;;;5.40;;
4766;SDS011;2397;53.576;9.746;2023-09-07T10:05:29;5.80;;;5.37;;
4766;SDS011;2397;53.576;9.746;2023-09-07T10:08:01;5.67;;;5.27;;
4766;SDS011;2397;53.576;9.746;2023-09-07T10:10:36;7.23;;;5.30;;
4766;SDS011;2397;53.576;9.746;2023-09-07T10:13:03;6.67;;;5.27;;
4766;SDS011;2397;53.576;9.746;2023-09-07T10:15:30;5.50;;;5.00;;
4766;SDS011;2397;53.576;9.746;2023-09-07T10:26:03;9.23;;;5.10;;
4766;SDS011;2397;53.576;9.746;2023-09-07T10:28:33;5.63;;;5.03;;
4766;SDS011;2397;53.576;9.746;2023-09-07T10:31:03;5.03;;;4.63;;
4766;SDS011;2397;53.576;9.746;2023-09-07T10:33:32;9.47;;;5.80;;
4766;SDS011;2397;53.576;9.746;2023-09-07T10:36:01;5.30;;;4.80;;
4766;SDS011;2397;53.576;9.746;2023-09-07T10:38:33;4.80;;;4.50;;
4766;SDS011;2397;53.576;9.746;2023-09-07T10:41:01;4.87;;;4.37;;
4766;SDS011;2397;53.576;9.746;2023-09-07T10:43:31;5.50;;;5.00;;
4766;SDS011;2397;53.576;9.746;2023-09-07T10:46:00;5.10;;;4.70;;
4766;SDS011;2397;53.576;9.746;2023-09-07T10:48:30;5.17;;;4.77;;
4766;SDS011;2397;53.576;9.746;2023-09-07T10:50:57;5.20;;;4.60;;
4766;SDS011;2397;53.576;9.746;2023-09-07T10:53:24;5.63;;;5.13;;
4766;SDS011;2397;53.576;9.746;2023-09-07T10:55:54;5.23;;;4.83;;
4766;SDS011;2397;53.576;9.746;2023-09-07T10:58:26;6.93;;;4.30;;
4766;SDS011;2397;53.576;9.746;2023-09-07T11:00:56;11.43;;;4.30;;
4766;SDS011;2397;53.576;9.746;2023-09-07T11:03:24;5.03;;;3.93;;
4766;SDS011;2397;53.576;9.746;2023-09-07T11:05:54;5.00;;;4.50;;
4766;SDS011;2397;53.576;9.746;2023-09-07T11:08:24;5.37;;;4.60;;
4766;SDS011;2397;53.576;9.746;2023-09-07T11:10:51;5.10;;;4.70;;
4766;SDS011;2397;53.576;9.746;2023-09-07T11:13:18;5.67;;;4.77;;
4766;SDS011;2397;53.576;9.746;2023-09-07T11:15:45;7.10;;;4.03;;
4766;SDS011;2397;53.576;9.746;2023-09-07T11:18:18;4.87;;;4.47;;
4766;SDS011;2397;53.576;9.746;2023-09-07T11:20:46;4.47;;;4.10;;
4766;SDS011;2397;53.576;9.746;2023-09-07T11:23:13;6.53;;;4.40;;
4766;SDS011;2397;53.576;9.746;2023-09-07T11:25:39;9.40;;;4.37;;
4766;SDS011;2397;53.576;9.746;2023-09-07T11:28:06;4.90;;;3.97;;
4766;SDS011;2397;53.576;9.746;2023-09-07T11:30:33;4.60;;;4.20;;
4766;SDS011;2397;53.576;9.746;2023-09-07T11:33:04;4.10;;;3.80;;
4766;SDS011;2397;53.576;9.746;2023-09-07T11:35:32;4.77;;;4.40;;
4766;SDS011;2397;53.576;9.746;2023-09-07T11:38:00;18.40;;;4.97;;
4766;SDS011;2397;53.576;9.746;2023-09-07T11:40:32;4.27;;;3.97;;
4766;SDS011;2397;53.576;9.746;2023-09-07T11:42:59;4.43;;;4.03;;
4766;SDS011;2397;53.576;9.746;2023-09-07T11:45:25;6.17;;;4.00;;
4766;SDS011;2397;53.576;9.746;2023-09-07T11:47:53;4.20;;;3.80;;
4766;SDS011;2397;53.576;9.746;2023-09-07T11:50:22;5.40;;;4.13;;
4766;SDS011;2397;53.576;9.746;2023-09-07T11:52:49;4.13;;;3.83;;
4766;SDS011;2397;53.576;9.746;2023-09-07T11:55:16;5.20;;;4.27;;
4766;SDS011;2397;53.576;9.746;2023-09-07T11:57:42;4.43;;;3.50;;
4766;SDS011;2397;53.576;9.746;2023-09-07T12:00:09;5.20;;;3.37;;
4766;SDS011;2397;53.576;9.746;2023-09-07T12:02:40;4.40;;;4.10;;
4766;SDS011;2397;53.576;9.746;2023-09-07T12:05:07;5.20;;;4.03;;
4766;SDS011;2397;53.576;9.746;2023-09-07T12:07:36;3.47;;;3.27;;
4766;SDS011;2397;53.576;9.746;2023-09-07T12:10:03;4.20;;;3.80;;
4766;SDS011;2397;53.576;9.746;2023-09-07T12:12:29;4.30;;;3.90;;
4766;SDS011;2397;53.576;9.746;2023-09-07T12:14:56;4.23;;;3.77;;
4766;SDS011;2397;53.576;9.746;2023-09-07T12:17:23;4.13;;;3.80;;
4766;SDS011;2397;53.576;9.746;2023-09-07T12:19:50;5.87;;;3.70;;
4766;SDS011;2397;53.576;9.746;2023-09-07T12:22:16;4.30;;;3.90;;
4766;SDS011;2397;53.576;9.746;2023-09-07T12:24:44;6.10;;;3.77;;
4766;SDS011;2397;53.576;9.746;2023-09-07T12:27:11;4.60;;;3.77;;
4766;SDS011;2397;53.576;9.746;2023-09-07T12:29:37;4.13;;;3.70;;
4766;SDS011;2397;53.576;9.746;2023-09-07T12:32:04;4.50;;;4.10;;
4766;SDS011;2397;53.576;9.746;2023-09-07T12:34:31;4.30;;;4.00;;
4766;SDS011;2397;53.576;9.746;2023-09-07T12:36:58;4.50;;;4.10;;
4766;SDS011;2397;53.576;9.746;2023-09-07T12:39:25;4.30;;;3.90;;
4766;SDS011;2397;53.576;9.746;2023-09-07T12:41:51;5.63;;;4.33;;
4766;SDS011;2397;53.576;9.746;2023-09-07T12:44:18;4.30;;;3.60;;
4766;SDS011;2397;53.576;9.746;2023-09-07T12:46:47;5.60;;;3.80;;
4766;SDS011;2397;53.576;9.746;2023-09-07T12:49:13;4.50;;;4.10;;
4766;SDS011;2397;53.576;9.746;2023-09-07T12:51:45;5.63;;;4.40;;
4766;SDS011;2397;53.576;9.746;2023-09-07T12:54:12;4.57;;;4.17;;
4766;SDS011;2397;53.576;9.746;2023-09-07T12:56:39;5.30;;;3.73;;
4766;SDS011;2397;53.576;9.746;2023-09-07T12:59:05;4.40;;;3.60;;
4766;SDS011;2397;53.576;9.746;2023-09-07T13:01:32;4.60;;;3.83;;
4766;SDS011;2397;53.576;9.746;2023-09-07T13:03:59;3.50;;;3.30;;
4766;SDS011;2397;53.576;9.746;2023-09-07T13:06:26;4.37;;;4.03;;
4766;SDS011;2397;53.576;9.746;2023-09-07T13:08:53;6.83;;;3.93;;
4766;SDS011;2397;53.576;9.746;2023-09-07T13:11:19;3.93;;;3.53;;
4766;SDS011;2397;53.576;9.746;2023-09-07T13:13:46;5.00;;;4.57;;
4766;SDS011;2397;53.576;9.746;2023-09-07T13:16:12;4.93;;;3.70;;
4766;SDS011;2397;53.576;9.746;2023-09-07T13:18:39;4.57;;;3.50;;
4766;SDS011;2397;53.576;9.746;2023-09-07T13:21:06;4.60;;;3.60;;
4766;SDS011;2397;53.576;9.746;2023-09-07T13:23:33;4.37;;;4.00;;
4766;SDS011;2397;53.576;9.746;2023-09-07T13:26:00;4.50;;;3.93;;
4766;SDS011;2397;53.576;9.746;2023-09-07T13:28:27;3.83;;;3.53;;
4766;SDS011;2397;53.576;9.746;2023-09-07T13:30:56;4.40;;;4.03;;
4766;SDS011;2397;53.576;9.746;2023-09-07T13:33:23;3.70;;;3.40;;
4766;SDS011;2397;53.576;9.746;2023-09-07T13:35:49;4.00;;;3.70;;
4766;SDS011;2397;53.576;9.746;2023-09-07T13:38:16;3.90;;;3.60;;
4766;SDS011;2397;53.576;9.746;2023-09-07T13:40:42;4.20;;;3.80;;
4766;SDS011;2397;53.576;9.746;2023-09-07T13:43:09;5.27;;;3.80;;
4766;SDS011;2397;53.576;9.746;2023-09-07T13:45:36;5.00;;;3.90;;
4766;SDS011;2397;53.576;9.746;2023-09-07T13:48:02;4.43;;;4.03;;
4766;SDS011;2397;53.576;9.746;2023-09-07T13:50:29;4.07;;;3.77;;
4766;SDS011;2397;53.576;9.746;2023-09-07T13:52:56;4.23;;;3.93;;
4766;SDS011;2397;53.576;9.746;2023-09-07T13:55:22;5.97;;;3.93;;
4766;SDS011;2397;53.576;9.746;2023-09-07T13:57:49;3.80;;;3.40;;
4766;SDS011;2397;53.576;9.746;2023-09-07T14:00:16;4.80;;;4.27;;
4766;SDS011;2397;53.576;9.746;2023-09-07T14:02:42;4.13;;;3.83;;
4766;SDS011;2397;53.576;9.746;2023-09-07T14:05:09;4.00;;;3.70;;
4766;SDS011;2397;53.576;9.746;2023-09-07T14:07:39;4.03;;;3.70;;
4766;SDS011;2397;53.576;9.746;2023-09-07T14:10:05;4.77;;;3.70;;
4766;SDS011;2397;53.576;9.746;2023-09-07T14:12:32;3.80;;;3.37;;
4766;SDS011;2397;53.576;9.746;2023-09-07T14:14:59;4.77;;;3.57;;
4766;SDS011;2397;53.576;9.746;2023-09-07T14:17:25;5.70;;;3.73;;
4766;SDS011;2397;53.576;9.746;2023-09-07T14:19:52;3.97;;;3.67;;
4766;SDS011;2397;53.576;9.746;2023-09-07T14:22:18;5.03;;;3.70;;
4766;SDS011;2397;53.576;9.746;2023-09-07T14:24:45;3.87;;;3.57;;
4766;SDS011;2397;53.576;9.746;2023-09-07T14:27:11;7.07;;;3.70;;
4766;SDS011;2397;53.576;9.746;2023-09-07T14:29:38;4.83;;;4.20;;
4766;SDS011;2397;53.576;9.746;2023-09-07T14:32:04;4.20;;;3.90;;
4766;SDS011;2397;53.576;9.746;2023-09-07T14:34:31;4.03;;;3.73;;
4766;SDS011;2397;53.576;9.746;2023-09-07T14:36:57;4.20;;;3.50;;
4766;SDS011;2397;53.576;9.746;2023-09-07T14:39:24;5.50;;;4.23;;
4766;SDS011;2397;53.576;9.746;2023-09-07T14:41:51;4.17;;;3.77;;
4766;SDS011;2397;53.576;9.746;2023-09-07T14:44:20;4.70;;;3.57;;
4766;SDS011;2397;53.576;9.746;2023-09-07T14:46:47;3.77;;;3.47;;
4766;SDS011;2397;53.576;9.746;2023-09-07T14:49:16;3.73;;;3.43;;
4766;SDS011;2397;53.576;9.746;2023-09-07T14:51:44;5.60;;;3.60;;
4766;SDS011;2397;53.576;9.746;2023-09-07T14:54:11;3.67;;;3.37;;
4766;SDS011;2397;53.576;9.746;2023-09-07T14:56:38;4.23;;;3.50;;
4766;SDS011;2397;53.576;9.746;2023-09-07T14:59:06;5.80;;;3.63;;
4766;SDS011;2397;53.576;9.746;2023-09-07T15:01:33;4.10;;;3.70;;
4766;SDS011;2397;53.576;9.746;2023-09-07T15:04:00;3.53;;;3.33;;
4766;SDS011;2397;53.576;9.746;2023-09-07T15:06:27;3.63;;;3.43;;
4766;SDS011;2397;53.576;9.746;2023-09-07T15:08:54;3.33;;;3.10;;
4766;SDS011;2397;53.576;9.746;2023-09-07T15:11:21;3.83;;;3.47;;
4766;SDS011;2397;53.576;9.746;2023-09-07T15:13:48;4.33;;;3.47;;
4766;SDS011;2397;53.576;9.746;2023-09-07T15:16:16;3.80;;;3.50;;
4766;SDS011;2397;53.576;9.746;2023-09-07T15:18:42;3.90;;;3.40;;
4766;SDS011;2397;53.576;9.746;2023-09-07T15:21:10;4.37;;;4.07;;
4766;SDS011;2397;53.576;9.746;2023-09-07T15:23:37;4.20;;;3.80;;
4766;SDS011;2397;53.576;9.746;2023-09-07T15:26:04;3.83;;;3.53;;